createdAt,value
2019-04-22T00:00:44.840Z,67.48
2019-04-22T00:01:34.544Z,67.59
2019-04-22T00:02:22.894Z,67.56
2019-04-22T00:03:17.980Z,67.58
2019-04-22T00:04:10.026Z,67.60
2019-04-22T00:05:05.763Z,67.64
2019-04-22T00:06:05.581Z,67.61
2019-04-22T00:06:59.519Z,67.61
2019-04-22T00:07:55.507Z,67.60
2019-04-22T00:08:36.085Z,67.59
2019-04-22T00:09:37.055Z,67.67
2019-04-22T00:10:26.526Z,67.68
2019-04-22T00:11:23.577Z,67.71
2019-04-22T00:12:06.099Z,67.68
2019-04-22T00:12:53.106Z,67.67
2019-04-22T00:13:47.159Z,67.75
2019-04-22T00:14:28.263Z,67.85
2019-04-22T00:15:19.981Z,67.77
2019-04-22T00:16:24.650Z,68.00
2019-04-22T00:17:07.253Z,67.99
2019-04-22T00:18:00.232Z,68.02
2019-04-22T00:19:01.774Z,67.99
2019-04-22T00:19:43.765Z,67.97
2019-04-22T00:20:30.186Z,68.10
2019-04-22T00:21:19.489Z,68.23
2019-04-22T00:22:17.929Z,68.16
2019-04-22T00:22:56.715Z,68.08
2019-04-22T00:23:51.549Z,68.08
2019-04-22T00:24:40.223Z,68.06
2019-04-22T00:25:34.830Z,68.06
2019-04-22T00:26:23.445Z,68.07
2019-04-22T00:27:14.064Z,68.09
2019-04-22T00:28:02.736Z,68.13
2019-04-22T00:28:58.266Z,68.17
2019-04-22T00:30:02.394Z,68.20
2019-04-22T00:30:28.164Z,68.25
2019-04-22T00:31:40.426Z,68.36
2019-04-22T00:32:46.416Z,68.41
2019-04-22T00:33:39.294Z,68.30
2019-04-22T00:34:30.181Z,68.30
2019-04-22T00:35:18.223Z,68.29
2019-04-22T00:36:12.762Z,68.24
2019-04-22T00:37:06.184Z,68.22
2019-04-22T00:37:59.787Z,68.31
2019-04-22T00:38:44.146Z,68.34
2019-04-22T00:39:36.574Z,68.37
2019-04-22T00:40:28.203Z,68.39
2019-04-22T00:41:13.242Z,68.45
2019-04-22T00:42:04.571Z,68.51
2019-04-22T00:42:53.075Z,68.61
2019-04-22T00:43:53.034Z,68.72
2019-04-22T00:44:39.088Z,68.71
2019-04-22T00:45:27.842Z,68.85
2019-04-22T00:46:19.325Z,68.82
2019-04-22T00:47:14.661Z,68.82
2019-04-22T00:48:00.895Z,68.82
2019-04-22T00:49:07.076Z,68.89
2019-04-22T00:50:34.759Z,69.12
2019-04-22T00:51:22.491Z,68.98
2019-04-22T00:52:20.624Z,68.92
2019-04-22T00:53:04.418Z,68.93
2019-04-22T00:53:57.504Z,68.98
2019-04-22T00:54:49.231Z,69.02
2019-04-22T00:55:31.404Z,69.06
2019-04-22T00:56:26.286Z,69.15
2019-04-22T00:57:19.979Z,69.10
2019-04-22T00:58:08.087Z,69.13
2019-04-22T00:58:56.312Z,69.13
2019-04-22T00:59:45.618Z,69.17
2019-04-22T01:00:37.891Z,69.18
2019-04-22T01:01:28.855Z,69.31
2019-04-22T01:02:24.482Z,69.39
2019-04-22T01:03:10.966Z,69.43
2019-04-22T01:04:04.190Z,69.42
2019-04-22T01:05:07.740Z,69.49
2019-04-22T01:05:40.792Z,69.55
2019-04-22T01:06:45.883Z,69.55
2019-04-22T01:07:18.780Z,69.72
2019-04-22T01:08:12.907Z,69.64
2019-04-22T01:09:05.785Z,69.62
2019-04-22T01:09:58.977Z,69.67
2019-04-22T01:10:47.459Z,69.71
2019-04-22T01:11:33.580Z,69.75
2019-04-22T01:12:26.496Z,69.80
2019-04-22T01:13:21.583Z,69.93
2019-04-22T01:14:04.874Z,69.99
2019-04-22T01:14:55.352Z,70.04
2019-04-22T01:15:51.248Z,69.95
2019-04-22T01:16:37.179Z,69.97
2019-04-22T01:17:27.654Z,70.00
2019-04-22T01:18:15.735Z,70.08
2019-04-22T01:19:10.440Z,70.37
2019-04-22T01:21:41.027Z,70.37
2019-04-22T01:22:38.216Z,70.32
2019-04-22T01:23:24.023Z,70.37
2019-04-22T01:24:12.243Z,70.38
2019-04-22T01:25:03.571Z,70.41
2019-04-22T01:25:49.371Z,70.44
2019-04-22T01:26:38.844Z,70.51
2019-04-22T01:27:27.276Z,70.54
2019-04-22T01:28:18.002Z,70.56
2019-04-22T01:29:05.108Z,70.57
2019-04-22T01:29:59.776Z,70.66
2019-04-22T01:30:43.875Z,70.80
2019-04-22T01:31:30.482Z,70.78
2019-04-22T01:32:22.732Z,70.81
2019-04-22T01:33:14.070Z,70.82
2019-04-22T01:34:12.196Z,70.84
2019-04-22T01:35:00.968Z,71.04
2019-04-22T01:35:56.880Z,71.33
2019-04-22T01:36:51.601Z,71.26
2019-04-22T01:37:36.103Z,71.27
2019-04-22T01:38:31.318Z,71.33
2019-04-22T01:39:22.689Z,71.37
2019-04-22T01:40:17.738Z,71.31
2019-04-22T01:41:09.686Z,71.52
2019-04-22T01:41:59.935Z,71.50
2019-04-22T01:42:59.805Z,71.52
2019-04-22T01:43:52.189Z,71.55
2019-04-22T01:44:35.840Z,71.49
2019-04-22T01:45:19.353Z,71.54
2019-04-22T01:46:08.343Z,71.55
2019-04-22T01:47:03.462Z,71.53
2019-04-22T01:47:58.510Z,71.46
2019-04-22T01:48:50.621Z,71.45
2019-04-22T01:50:26.180Z,71.76
2019-04-22T01:51:12.455Z,71.79
2019-04-22T01:52:11.529Z,71.75
2019-04-22T01:53:06.482Z,71.90
2019-04-22T01:53:51.753Z,71.84
2019-04-22T01:54:40.319Z,71.81
2019-04-22T01:55:31.071Z,71.73
2019-04-22T01:56:24.103Z,71.70
2019-04-22T01:57:06.549Z,71.73
2019-04-22T01:58:00.075Z,71.75
2019-04-22T01:58:43.898Z,71.77
2019-04-22T01:59:37.039Z,71.76
2019-04-22T02:00:38.563Z,71.76
2019-04-22T02:01:32.461Z,71.75
2019-04-22T02:02:16.377Z,71.75
2019-04-22T02:03:14.076Z,71.78
2019-04-22T02:04:00.922Z,71.83
2019-04-22T02:04:57.901Z,71.85
2019-04-22T02:05:35.759Z,71.87
2019-04-22T02:06:36.375Z,71.87
2019-04-22T02:07:28.012Z,71.91
2019-04-22T02:08:15.035Z,71.92
2019-04-22T02:09:09.477Z,71.98
2019-04-22T02:09:55.181Z,72.00
2019-04-22T02:10:49.291Z,72.04
2019-04-22T02:11:43.560Z,72.08
2019-04-22T02:12:30.841Z,72.06
2019-04-22T02:13:21.371Z,72.03
2019-04-22T02:14:11.699Z,72.03
2019-04-22T02:14:57.862Z,72.03
2019-04-22T02:15:56.352Z,72.05
2019-04-22T02:16:43.867Z,72.07
2019-04-22T02:19:17.309Z,72.25
2019-04-22T02:20:06.188Z,72.21
2019-04-22T02:20:54.996Z,72.17
2019-04-22T02:21:42.754Z,72.17
2019-04-22T02:23:30.324Z,72.25
2019-04-22T02:24:02.449Z,72.22
2019-04-22T02:24:51.182Z,72.26
2019-04-22T02:25:51.688Z,72.23
2019-04-22T02:26:51.732Z,72.28
2019-04-22T02:27:32.342Z,72.29
2019-04-22T02:28:25.720Z,72.30
2019-04-22T02:29:06.531Z,72.32
2019-04-22T02:29:57.867Z,72.35
2019-04-22T02:31:16.872Z,72.39
2019-04-22T02:35:11.247Z,72.64
2019-04-22T02:36:20.202Z,72.59
2019-04-22T02:36:43.239Z,72.64
2019-04-22T02:37:54.504Z,72.59
2019-04-22T02:39:20.244Z,72.61
2019-04-22T02:40:09.690Z,72.58
2019-04-22T02:41:15.711Z,72.70
2019-04-22T02:41:50.908Z,72.70
2019-04-22T02:42:43.236Z,72.70
2019-04-22T02:44:31.365Z,72.73
2019-04-22T02:45:09.630Z,72.77
2019-04-22T02:47:07.941Z,72.73
2019-04-22T02:47:42.212Z,72.74
2019-04-22T02:49:31.231Z,72.71
2019-04-22T02:51:21.939Z,72.67
2019-04-22T02:52:06.397Z,72.71
2019-04-22T02:52:50.153Z,72.75
2019-04-22T02:54:17.288Z,72.89
2019-04-22T02:55:23.519Z,72.94
2019-04-22T02:56:27.247Z,72.93
2019-04-22T02:57:03.247Z,72.95
2019-04-22T02:57:47.417Z,73.20
2019-04-22T02:58:55.129Z,73.20
2019-04-22T02:59:34.459Z,73.20
2019-04-22T03:00:35.378Z,73.18
2019-04-22T03:01:23.482Z,73.15
2019-04-22T03:02:07.670Z,73.16
2019-04-22T03:03:11.439Z,73.15
2019-04-22T03:04:57.707Z,73.21
2019-04-22T03:05:36.524Z,73.26
2019-04-22T03:06:30.424Z,73.34
2019-04-22T03:07:07.594Z,73.38
2019-04-22T03:08:06.660Z,73.46
2019-04-22T03:08:55.814Z,73.54
2019-04-22T03:10:49.363Z,73.61
2019-04-22T03:13:18.958Z,74.43
2019-04-22T03:14:51.600Z,74.00
2019-04-22T03:15:42.555Z,74.05
2019-04-22T03:16:34.907Z,73.97
2019-04-22T03:17:25.571Z,73.89
2019-04-22T03:18:09.176Z,73.84
2019-04-22T03:19:02.890Z,73.83
2019-04-22T03:20:42.834Z,73.82
2019-04-22T03:21:31.245Z,73.78
2019-04-22T03:22:20.987Z,73.79
2019-04-22T03:24:15.807Z,73.89
2019-04-22T03:25:24.171Z,73.83
2019-04-22T03:26:00.441Z,73.78
2019-04-22T03:26:48.919Z,73.78
2019-04-22T03:27:30.116Z,73.82
2019-04-22T03:28:27.359Z,73.84
2019-04-22T03:29:17.826Z,73.90
2019-04-22T03:31:13.844Z,73.97
2019-04-22T03:33:40.022Z,74.06
2019-04-22T03:36:18.638Z,74.25
2019-04-22T03:38:56.070Z,74.42
2019-04-22T03:42:07.715Z,74.44
2019-04-22T03:44:02.675Z,74.53
2019-04-22T03:44:42.148Z,74.46
2019-04-22T03:45:28.462Z,74.43
2019-04-22T03:46:21.095Z,74.42
2019-04-22T03:49:07.052Z,74.66
2019-04-22T03:49:58.574Z,74.63
2019-04-22T03:51:43.388Z,74.60
2019-04-22T03:53:15.011Z,74.58
2019-04-22T03:55:45.023Z,74.77
2019-04-22T03:57:07.237Z,74.80
2019-04-22T03:57:40.559Z,74.81
2019-04-22T03:58:18.968Z,74.77
2019-04-22T03:59:22.493Z,74.89
2019-04-22T04:00:08.394Z,74.85
2019-04-22T04:03:25.393Z,74.90
2019-04-22T04:04:18.674Z,74.87
2019-04-22T04:05:54.154Z,74.80
2019-04-22T04:08:31.849Z,74.80
2019-04-22T04:09:24.090Z,74.80
2019-04-22T04:10:27.807Z,74.88
2019-04-22T04:10:53.293Z,74.83
2019-04-22T04:15:20.993Z,74.99
2019-04-22T04:16:07.937Z,75.07
2019-04-22T04:18:53.350Z,75.12
2019-04-22T04:19:36.778Z,75.15
2019-04-22T04:20:21.868Z,75.27
2019-04-22T04:21:22.904Z,75.28
2019-04-22T04:21:58.840Z,75.37
2019-04-22T04:23:14.242Z,75.39
2019-04-22T04:23:50.240Z,75.39
2019-04-22T04:24:50.940Z,75.43
2019-04-22T04:26:26.496Z,75.46
2019-04-22T04:27:06.719Z,75.52
2019-04-22T04:28:10.658Z,75.55
2019-04-22T04:29:51.064Z,75.57
2019-04-22T04:30:31.789Z,75.59
2019-04-22T04:31:30.119Z,75.66
2019-04-22T04:32:18.771Z,75.67
2019-04-22T04:32:57.086Z,75.67
2019-04-22T04:33:48.391Z,75.70
2019-04-22T04:37:33.128Z,75.85
2019-04-22T04:38:11.461Z,76.03
2019-04-22T04:39:00.350Z,76.00
2019-04-22T04:40:00.367Z,75.97
2019-04-22T04:40:37.355Z,75.97
2019-04-22T04:41:37.016Z,75.96
2019-04-22T04:42:33.265Z,75.98
2019-04-22T04:44:01.516Z,76.02
2019-04-22T04:45:18.522Z,76.10
2019-04-22T04:46:45.444Z,76.21
2019-04-22T04:47:39.081Z,76.28
2019-04-22T04:48:13.774Z,76.31
2019-04-22T04:50:05.839Z,76.39
2019-04-22T04:50:48.332Z,76.52
2019-04-22T04:52:39.738Z,76.55
2019-04-22T04:53:20.181Z,76.59
2019-04-22T04:54:21.446Z,76.59
2019-04-22T04:55:46.818Z,76.64
2019-04-22T04:56:46.973Z,76.77
2019-04-22T04:57:33.848Z,77.58
2019-04-22T04:59:16.916Z,77.87
2019-04-22T05:00:35.087Z,78.18
2019-04-22T05:02:40.024Z,77.58
2019-04-22T05:03:20.662Z,77.47
2019-04-22T05:04:14.354Z,77.53
2019-04-22T05:05:55.070Z,77.48
2019-04-22T05:07:36.298Z,77.29
2019-04-22T05:08:29.610Z,77.24
2019-04-22T05:10:21.275Z,77.17
2019-04-22T05:11:11.532Z,77.14
2019-04-22T05:13:23.418Z,77.08
2019-04-22T05:14:19.104Z,77.17
2019-04-22T05:15:04.158Z,77.15
2019-04-22T05:16:11.497Z,77.12
2019-04-22T05:17:35.169Z,77.14
2019-04-22T05:18:24.077Z,77.05
2019-04-22T05:19:15.751Z,76.99
2019-04-22T05:20:06.732Z,76.96
2019-04-22T05:21:39.949Z,76.89
2019-04-22T05:22:34.096Z,76.85
2019-04-22T05:23:30.481Z,76.85
2019-04-22T05:24:18.844Z,76.82
2019-04-22T05:25:05.981Z,76.87
2019-04-22T05:25:52.542Z,76.91
2019-04-22T05:26:52.700Z,77.02
2019-04-22T05:28:23.689Z,77.29
2019-04-22T05:29:19.186Z,77.16
2019-04-22T05:30:56.717Z,77.05
2019-04-22T05:31:55.337Z,77.00
2019-04-22T05:32:40.175Z,76.99
2019-04-22T05:33:32.199Z,76.98
2019-04-22T05:34:17.447Z,76.95
2019-04-22T05:35:06.758Z,76.93
2019-04-22T05:35:53.671Z,76.90
2019-04-22T05:36:47.228Z,76.87
2019-04-22T05:37:40.493Z,76.86
2019-04-22T05:38:34.898Z,76.84
2019-04-22T05:39:15.815Z,76.79
2019-04-22T05:40:17.688Z,76.74
2019-04-22T05:41:00.596Z,76.69
2019-04-22T05:41:48.311Z,76.68
2019-04-22T05:42:39.559Z,76.65
2019-04-22T05:43:28.929Z,76.66
2019-04-22T05:45:58.882Z,76.62
2019-04-22T05:46:52.998Z,76.71
2019-04-22T05:47:46.377Z,76.66
2019-04-22T05:48:41.632Z,76.70
2019-04-22T05:49:27.166Z,76.81
2019-04-22T05:50:14.476Z,76.69
2019-04-22T05:51:04.569Z,76.62
2019-04-22T05:51:48.125Z,76.58
2019-04-22T05:52:46.840Z,76.53
2019-04-22T05:53:40.071Z,76.45
2019-04-22T05:54:27.361Z,76.34
2019-04-22T05:55:22.456Z,76.25
2019-04-22T05:56:15.527Z,76.16
2019-04-22T05:57:04.024Z,76.06
2019-04-22T05:57:54.484Z,75.97
2019-04-22T05:58:46.375Z,75.86
2019-04-22T05:59:42.258Z,75.77
2019-04-22T06:00:30.966Z,75.69
2019-04-22T06:02:21.052Z,75.54
2019-04-22T06:03:04.543Z,75.39
2019-04-22T06:04:04.310Z,75.30
2019-04-22T06:04:46.365Z,75.20
2019-04-22T06:05:31.915Z,75.12
2019-04-22T06:06:18.024Z,75.03
2019-04-22T06:07:07.018Z,74.94
2019-04-22T06:08:59.159Z,74.88
2019-04-22T06:09:47.270Z,74.84
2019-04-22T06:10:39.874Z,74.75
2019-04-22T06:11:25.689Z,74.68
2019-04-22T06:12:12.319Z,74.56
2019-04-22T06:13:01.040Z,74.45
2019-04-22T06:13:58.748Z,74.37
2019-04-22T06:14:50.634Z,74.25
2019-04-22T06:15:36.238Z,74.13
2019-04-22T06:16:33.767Z,74.04
2019-04-22T06:17:24.740Z,73.95
2019-04-22T06:18:16.067Z,73.84
2019-04-22T06:19:08.743Z,73.75
2019-04-22T06:19:54.162Z,73.66
2019-04-22T06:20:53.155Z,73.57
2019-04-22T06:21:45.958Z,73.51
2019-04-22T06:22:38.661Z,73.45
2019-04-22T06:24:18.510Z,73.28
2019-04-22T06:25:01.159Z,73.16
2019-04-22T06:26:05.842Z,73.08
2019-04-22T06:27:35.445Z,72.96
2019-04-22T06:28:31.552Z,72.89
2019-04-22T06:29:18.000Z,72.81
2019-04-22T06:30:04.368Z,72.72
2019-04-22T06:31:08.446Z,72.63
2019-04-22T06:32:11.795Z,72.49
2019-04-22T06:32:31.326Z,72.39
2019-04-22T06:33:31.984Z,72.26
2019-04-22T06:34:17.618Z,72.16
2019-04-22T06:35:11.422Z,72.05
2019-04-22T06:35:56.461Z,71.98
2019-04-22T06:36:53.663Z,71.86
2019-04-22T06:37:46.479Z,71.78
2019-04-22T06:38:43.178Z,71.70
2019-04-22T06:39:26.709Z,71.61
2019-04-22T06:40:16.401Z,71.55
2019-04-22T06:41:04.530Z,71.49
2019-04-22T06:41:59.139Z,71.38
2019-04-22T06:42:42.976Z,71.29
2019-04-22T06:43:35.557Z,71.21
2019-04-22T06:44:26.009Z,71.12
2019-04-22T06:46:04.234Z,70.90
2019-04-22T06:46:52.359Z,70.76
2019-04-22T06:48:52.440Z,70.47
2019-04-22T06:50:16.848Z,70.30
2019-04-22T06:51:08.203Z,70.19
2019-04-22T06:52:02.507Z,70.06
2019-04-22T06:52:55.710Z,69.96
2019-04-22T06:53:41.113Z,69.85
2019-04-22T06:54:32.646Z,69.74
2019-04-22T06:55:22.935Z,69.65
2019-04-22T06:56:14.354Z,69.59
2019-04-22T06:57:04.388Z,69.52
2019-04-22T06:57:53.319Z,69.46
2019-04-22T06:58:41.061Z,69.41
2019-04-22T06:59:31.208Z,69.33
2019-04-22T07:00:24.550Z,69.26
2019-04-22T07:01:43.167Z,69.02
2019-04-22T07:02:10.695Z,68.92
2019-04-22T07:03:22.623Z,68.83
2019-04-22T07:03:54.012Z,68.79
2019-04-22T07:04:34.852Z,68.67
2019-04-22T07:05:28.028Z,68.54
2019-04-22T07:06:35.759Z,68.44
2019-04-22T07:08:04.439Z,68.15
2019-04-22T07:10:43.457Z,67.69
2019-04-22T07:11:18.891Z,67.60
2019-04-22T07:12:21.169Z,67.50
2019-04-22T07:13:00.874Z,67.40
2019-04-22T07:14:01.672Z,67.28
2019-04-22T07:14:50.899Z,67.00
2019-04-22T07:15:47.125Z,66.75
2019-04-22T07:16:31.934Z,66.61
2019-04-22T07:17:15.790Z,66.44
2019-04-22T07:18:14.674Z,66.10
2019-04-22T07:19:02.203Z,65.90
2019-04-22T07:19:52.808Z,65.67
2019-04-22T07:20:47.263Z,65.68
2019-04-22T07:21:35.224Z,65.72
2019-04-22T07:22:25.743Z,65.68
2019-04-22T07:23:13.430Z,65.67
2019-04-22T07:24:21.211Z,65.55
2019-04-22T07:24:56.192Z,65.52
2019-04-22T07:26:30.178Z,65.46
2019-04-22T07:27:40.682Z,65.44
2019-04-22T07:28:20.088Z,65.39
2019-04-22T07:29:07.473Z,65.27
2019-04-22T07:30:01.994Z,65.18
2019-04-22T07:30:54.657Z,65.13
2019-04-22T07:31:45.013Z,65.01
2019-04-22T07:32:53.366Z,64.73
2019-04-22T07:33:27.760Z,64.57
2019-04-22T07:34:22.246Z,64.47
2019-04-22T07:35:08.336Z,64.32
2019-04-22T07:36:54.838Z,64.10
2019-04-22T07:38:28.305Z,63.79
2019-04-22T07:39:24.039Z,63.57
2019-04-22T07:40:13.784Z,63.06
2019-04-22T07:40:59.424Z,62.82
2019-04-22T07:41:50.888Z,62.40
2019-04-22T07:42:45.518Z,62.61
2019-04-22T07:43:51.640Z,62.68
2019-04-22T07:44:36.724Z,62.68
2019-04-22T07:45:23.734Z,62.65
2019-04-22T07:46:09.532Z,62.35
2019-04-22T07:47:11.376Z,61.86
2019-04-22T07:47:52.103Z,61.68
2019-04-22T07:49:39.496Z,61.15
2019-04-22T07:51:28.216Z,60.94
2019-04-22T07:52:05.161Z,60.92
2019-04-22T07:52:51.974Z,60.56
2019-04-22T07:53:44.373Z,60.24
2019-04-22T07:54:31.664Z,59.81
2019-04-22T07:55:27.327Z,59.96
2019-04-22T07:56:18.806Z,59.99
2019-04-22T07:57:18.445Z,59.94
2019-04-22T07:58:00.730Z,59.88
2019-04-22T07:58:50.343Z,59.76
2019-04-22T07:59:43.657Z,59.56
2019-04-22T08:00:29.723Z,57.65
2019-04-22T08:01:20.470Z,58.25
2019-04-22T08:02:10.430Z,58.40
2019-04-22T08:03:06.698Z,56.62
2019-04-22T08:04:01.903Z,57.22
2019-04-22T08:04:55.794Z,56.98
2019-04-22T08:05:42.264Z,57.14
2019-04-22T08:06:26.387Z,57.20
2019-04-22T08:07:24.081Z,55.81
2019-04-22T08:08:17.531Z,55.84
2019-04-22T08:09:01.786Z,56.16
2019-04-22T08:09:54.210Z,55.44
2019-04-22T08:10:43.108Z,55.17
2019-04-22T08:12:18.718Z,55.50
2019-04-22T08:12:33.247Z,55.24
2019-04-22T08:13:11.680Z,55.12
2019-04-22T08:13:55.259Z,55.20
2019-04-22T08:14:45.676Z,54.99
2019-04-22T08:15:41.472Z,55.09
2019-04-22T08:16:26.367Z,55.09
2019-04-22T08:17:41.577Z,55.02
2019-04-22T08:18:15.730Z,54.85
2019-04-22T08:19:04.098Z,54.90
2019-04-22T08:19:48.471Z,54.72
2019-04-22T08:20:42.770Z,53.81
2019-04-22T08:21:33.375Z,52.99
2019-04-22T08:22:15.682Z,52.82
2019-04-22T08:23:08.772Z,52.75
2019-04-22T08:24:01.222Z,52.25
2019-04-22T08:24:57.780Z,52.22
2019-04-22T08:25:42.915Z,51.85
2019-04-22T08:26:33.521Z,51.80
2019-04-22T08:27:22.472Z,51.82
2019-04-22T08:28:17.874Z,51.58
2019-04-22T08:29:06.786Z,50.34
2019-04-22T08:30:11.746Z,50.07
2019-04-22T08:30:51.957Z,50.45
2019-04-22T08:31:40.069Z,50.01
2019-04-22T08:32:28.452Z,49.63
2019-04-22T08:33:22.095Z,49.99
2019-04-22T08:34:55.677Z,49.30
2019-04-22T08:36:11.932Z,49.74
2019-04-22T08:36:53.979Z,50.22
2019-04-22T08:38:33.583Z,50.62
2019-04-22T08:39:13.604Z,50.49
2019-04-22T08:40:09.589Z,49.31
2019-04-22T08:41:23.323Z,49.38
2019-04-22T08:42:08.332Z,48.46
2019-04-22T08:43:07.234Z,48.68
2019-04-22T08:45:31.878Z,48.94
2019-04-22T08:46:27.433Z,49.05
2019-04-22T08:47:19.073Z,49.40
2019-04-22T08:48:01.226Z,49.47
2019-04-22T08:48:57.677Z,49.58
2019-04-22T08:49:50.738Z,49.65
2019-04-22T08:50:33.394Z,49.08
2019-04-22T08:51:25.375Z,47.66
2019-04-22T08:53:09.465Z,47.19
2019-04-22T08:53:59.861Z,46.99
2019-04-22T08:54:51.295Z,46.00
2019-04-22T08:56:32.239Z,45.64
2019-04-22T08:57:18.358Z,45.98
2019-04-22T08:58:20.329Z,46.08
2019-04-22T08:59:12.339Z,45.54
2019-04-22T08:59:56.974Z,45.33
2019-04-22T09:00:47.550Z,46.01
2019-04-22T09:02:30.116Z,46.19
2019-04-22T09:03:10.686Z,45.69
2019-04-22T09:04:02.267Z,44.40
2019-04-22T09:04:58.344Z,44.36
2019-04-22T09:06:01.543Z,45.15
2019-04-22T09:06:49.697Z,45.11
2019-04-22T09:07:28.751Z,45.20
2019-04-22T09:08:18.794Z,45.63
2019-04-22T09:09:17.646Z,45.57
2019-04-22T09:10:48.565Z,45.22
2019-04-22T09:12:49.987Z,45.04
2019-04-22T09:13:20.622Z,45.10
2019-04-22T09:14:31.331Z,45.35
2019-04-22T09:15:18.333Z,45.52
2019-04-22T09:15:49.116Z,45.46
2019-04-22T09:16:45.933Z,45.02
2019-04-22T09:17:34.954Z,45.21
2019-04-22T09:18:21.976Z,44.84
2019-04-22T09:19:12.631Z,44.12
2019-04-22T09:20:10.875Z,44.58
2019-04-22T09:21:10.366Z,44.66
2019-04-22T09:22:04.732Z,45.37
2019-04-22T09:22:53.723Z,44.68
2019-04-22T09:23:30.287Z,44.89
2019-04-22T09:24:23.666Z,43.53
2019-04-22T09:25:06.724Z,43.09
2019-04-22T09:26:03.498Z,43.50
2019-04-22T09:26:54.253Z,43.88
2019-04-22T09:27:44.526Z,44.28
2019-04-22T09:28:37.696Z,43.60
2019-04-22T09:29:30.482Z,43.44
2019-04-22T09:30:22.792Z,43.41
2019-04-22T09:31:08.054Z,43.42
2019-04-22T09:32:05.532Z,43.70
2019-04-22T09:32:58.053Z,43.38
2019-04-22T09:33:38.914Z,43.95
2019-04-22T09:34:35.412Z,44.27
2019-04-22T09:35:24.911Z,43.93
2019-04-22T09:37:11.615Z,43.39
2019-04-22T09:38:16.975Z,42.89
2019-04-22T09:38:41.179Z,43.07
2019-04-22T09:39:34.664Z,41.88
2019-04-22T09:40:28.909Z,41.49
2019-04-22T09:41:20.915Z,41.28
2019-04-22T09:42:10.808Z,41.48
2019-04-22T09:43:21.855Z,42.50
2019-04-22T09:43:52.341Z,42.84
2019-04-22T09:44:40.323Z,42.43
2019-04-22T09:45:27.467Z,42.03
2019-04-22T09:46:25.008Z,40.99
2019-04-22T09:47:11.680Z,41.02
2019-04-22T09:48:08.665Z,41.43
2019-04-22T09:49:00.292Z,41.99
2019-04-22T09:49:49.688Z,42.48
2019-04-22T09:50:40.439Z,42.75
2019-04-22T09:51:25.377Z,42.15
2019-04-22T09:52:14.919Z,42.55
2019-04-22T09:53:08.697Z,42.32
2019-04-22T09:54:01.209Z,41.64
2019-04-22T09:54:57.880Z,41.24
2019-04-22T09:55:34.567Z,41.87
2019-04-22T09:56:33.310Z,42.21
2019-04-22T09:57:21.425Z,41.65
2019-04-22T09:58:14.819Z,40.55
2019-04-22T09:59:14.018Z,40.92
2019-04-22T09:59:57.919Z,41.03
2019-04-22T10:00:48.461Z,40.69
2019-04-22T10:02:28.117Z,40.26
2019-04-22T10:03:16.619Z,40.59
2019-04-22T10:04:05.374Z,40.52
2019-04-22T10:04:57.239Z,39.75
2019-04-22T10:05:52.495Z,40.11
2019-04-22T10:06:40.584Z,40.02
2019-04-22T10:07:27.621Z,40.61
2019-04-22T10:08:24.500Z,39.99
2019-04-22T10:09:27.187Z,39.93
2019-04-22T10:10:03.462Z,39.69
2019-04-22T10:10:48.724Z,39.93
2019-04-22T10:11:51.097Z,39.29
2019-04-22T10:12:32.186Z,39.13
2019-04-22T10:13:18.743Z,39.64
2019-04-22T10:14:10.342Z,39.25
2019-04-22T10:14:54.013Z,37.51
2019-04-22T10:15:48.148Z,37.68
2019-04-22T10:17:32.283Z,38.30
2019-04-22T10:18:26.209Z,38.33
2019-04-22T10:19:11.441Z,38.85
2019-04-22T10:20:05.589Z,38.03
2019-04-22T10:20:56.466Z,38.35
2019-04-22T10:22:43.995Z,37.47
2019-04-22T10:23:24.984Z,37.96
2019-04-22T10:24:13.805Z,38.45
2019-04-22T10:25:11.999Z,38.73
2019-04-22T10:26:02.524Z,37.74
2019-04-22T10:27:40.787Z,37.75
2019-04-22T10:28:33.455Z,38.31
2019-04-22T10:29:26.377Z,37.68
2019-04-22T10:30:13.010Z,36.69
2019-04-22T10:31:19.229Z,38.27
2019-04-22T10:31:49.748Z,39.08
2019-04-22T10:32:46.180Z,38.94
2019-04-22T10:33:25.807Z,38.62
2019-04-22T10:34:11.762Z,38.20
2019-04-22T10:35:15.418Z,38.61
2019-04-22T10:36:01.518Z,36.95
2019-04-22T10:36:57.511Z,36.64
2019-04-22T10:37:42.752Z,37.01
2019-04-22T10:38:32.573Z,36.57
2019-04-22T10:39:35.701Z,36.52
2019-04-22T10:40:42.804Z,37.08
2019-04-22T10:41:32.420Z,37.00
2019-04-22T10:42:23.059Z,36.51
2019-04-22T10:43:12.115Z,36.56
2019-04-22T10:44:03.337Z,35.86
2019-04-22T10:44:53.785Z,35.86
2019-04-22T10:45:43.904Z,35.30
2019-04-22T10:46:34.020Z,34.46
2019-04-22T10:47:25.500Z,34.06
2019-04-22T10:48:14.554Z,34.13
2019-04-22T10:49:04.237Z,34.72
2019-04-22T10:49:56.374Z,34.98
2019-04-22T10:50:46.784Z,33.94
2019-04-22T10:51:37.227Z,33.39
2019-04-22T10:52:27.725Z,33.54
2019-04-22T10:53:19.537Z,33.59
2019-04-22T10:54:09.655Z,33.59
2019-04-22T10:54:59.476Z,33.90
2019-04-22T10:55:51.068Z,33.90
2019-04-22T10:56:41.093Z,33.77
2019-04-22T10:57:31.858Z,34.51
2019-04-22T10:58:23.006Z,34.83
2019-04-22T10:59:16.323Z,34.83
2019-04-22T11:00:05.647Z,34.05
2019-04-22T11:00:58.075Z,34.21
2019-04-22T11:01:48.623Z,34.52
2019-04-22T11:02:37.571Z,34.51
2019-04-22T11:03:28.559Z,34.75
2019-04-22T11:04:19.355Z,34.72
2019-04-22T11:05:08.309Z,34.72
2019-04-22T11:05:59.451Z,32.56
2019-04-22T11:06:56.013Z,32.56
2019-04-22T11:07:46.276Z,32.45
2019-04-22T11:08:38.832Z,33.06
2019-04-22T11:09:23.482Z,32.47
2019-04-22T11:10:29.358Z,32.48
2019-04-22T11:11:16.159Z,32.19
2019-04-22T11:12:01.365Z,32.71
2019-04-22T11:12:45.184Z,32.71
2019-04-22T11:13:35.835Z,31.25
2019-04-22T11:14:26.558Z,30.01
2019-04-22T11:15:15.914Z,30.95
2019-04-22T11:16:07.599Z,30.95
2019-04-22T11:16:58.720Z,29.44
2019-04-22T11:17:47.555Z,28.28
2019-04-22T11:18:37.845Z,27.30
2019-04-22T11:19:28.066Z,27.72
2019-04-22T11:20:19.844Z,25.18
2019-04-22T11:21:09.966Z,24.12
2019-04-22T11:22:09.683Z,23.44
2019-04-22T11:22:51.053Z,23.44
2019-04-22T11:23:40.771Z,23.64
2019-04-22T11:24:32.676Z,21.55
2019-04-22T11:25:21.728Z,21.14
2019-04-22T11:26:12.215Z,19.05
2019-04-22T11:27:03.210Z,20.16
2019-04-22T11:27:53.583Z,19.79
2019-04-22T11:28:43.283Z,18.47
2019-04-22T11:29:32.199Z,17.95
2019-04-22T11:30:24.614Z,17.79
2019-04-22T11:31:12.659Z,16.37
2019-04-22T11:32:04.212Z,16.84
2019-04-22T11:32:54.227Z,16.58
2019-04-22T11:33:44.900Z,15.63
2019-04-22T11:34:37.568Z,15.86
2019-04-22T11:35:27.817Z,15.45
2019-04-22T11:36:17.762Z,15.13
2019-04-22T11:37:08.343Z,16.06
2019-04-22T11:38:00.989Z,15.57
2019-04-22T11:38:56.448Z,15.30
2019-04-22T11:39:42.562Z,15.15
2019-04-22T11:40:38.433Z,15.07
2019-04-22T11:41:23.560Z,14.83
2019-04-22T11:42:14.080Z,14.38
2019-04-22T11:43:04.050Z,14.69
2019-04-22T11:43:53.712Z,14.27
2019-04-22T11:44:45.321Z,14.61
2019-04-22T11:45:37.082Z,14.71
2019-04-22T11:46:27.241Z,13.86
2019-04-22T11:47:17.405Z,14.09
2019-04-22T11:48:09.040Z,13.84
2019-04-22T11:49:00.164Z,14.59
2019-04-22T11:49:50.012Z,14.11
2019-04-22T11:50:40.052Z,17.58
2019-04-22T11:51:29.910Z,14.77
2019-04-22T11:52:20.551Z,15.93
2019-04-22T11:53:10.987Z,16.10
2019-04-22T11:54:02.912Z,13.96
2019-04-22T11:54:52.890Z,16.03
2019-04-22T11:55:42.589Z,14.95
2019-04-22T11:56:32.220Z,13.70
2019-04-22T11:57:23.344Z,15.36
2019-04-22T11:58:14.953Z,15.18
2019-04-22T11:59:04.836Z,16.27
2019-04-22T11:59:54.736Z,14.79
2019-04-22T12:00:45.151Z,16.20
2019-04-22T12:01:35.030Z,14.60
2019-04-22T12:02:27.303Z,14.63
2019-04-22T12:03:18.800Z,15.80
2019-04-22T12:04:09.735Z,16.03
2019-04-22T12:04:59.669Z,14.17
2019-04-22T12:05:49.991Z,14.10
2019-04-22T12:06:40.109Z,14.75
2019-04-22T12:07:32.740Z,15.72
2019-04-22T12:08:20.716Z,15.70
2019-04-22T12:09:10.196Z,15.99
2019-04-22T12:10:13.242Z,14.61
2019-04-22T12:10:57.086Z,14.29
2019-04-22T12:11:42.268Z,15.31
2019-04-22T12:12:32.667Z,15.30
2019-04-22T12:13:24.062Z,15.59
2019-04-22T12:14:15.795Z,16.28
2019-04-22T12:15:06.399Z,16.00
2019-04-22T12:15:56.270Z,15.04
2019-04-22T12:16:47.659Z,15.17
2019-04-22T12:17:38.136Z,14.79
2019-04-22T12:18:29.458Z,15.88
2019-04-22T12:19:20.905Z,15.97
2019-04-22T12:20:14.010Z,16.06
2019-04-22T12:21:03.428Z,16.38
2019-04-22T12:21:53.259Z,15.62
2019-04-22T12:22:45.041Z,15.37
2019-04-22T12:23:35.069Z,16.29